sensor_id;sensor_type;location;lat;lon;timestamp;P1;durP1;ratioP1;P2;durP2;ratioP2
7179;SDS011;3631;42.152;24.756;2023-04-15T00:02:41;5.10;;;4.43;;
7179;SDS011;3631;42.152;24.756;2023-04-15T00:05:31;4.60;;;3.83;;
7179;SDS011;3631;42.152;24.756;2023-04-15T00:08:25;4.87;;;4.10;;
7179;SDS011;3631;42.152;24.756;2023-04-15T00:11:14;4.80;;;4.30;;
7179;SDS011;3631;42.152;24.756;2023-04-15T00:14:07;6.93;;;4.27;;
7179;SDS011;3631;42.152;24.756;2023-04-15T00:16:58;5.20;;;4.80;;
7179;SDS011;3631;42.152;24.756;2023-04-15T00:19:38;5.63;;;5.13;;
7179;SDS011;3631;42.152;24.756;2023-04-15T00:22:27;6.27;;;5.23;;
7179;SDS011;3631;42.152;24.756;2023-04-15T00:25:11;4.90;;;4.50;;
7179;SDS011;3631;42.152;24.756;2023-04-15T00:28:05;6.03;;;5.43;;
7179;SDS011;3631;42.152;24.756;2023-04-15T00:30:54;5.73;;;5.00;;
7179;SDS011;3631;42.152;24.756;2023-04-15T00:33:33;6.00;;;5.30;;
7179;SDS011;3631;42.152;24.756;2023-04-15T00:36:16;10.17;;;5.57;;
7179;SDS011;3631;42.152;24.756;2023-04-15T00:39:01;5.63;;;4.93;;
7179;SDS011;3631;42.152;24.756;2023-04-15T00:41:52;5.93;;;5.40;;
7179;SDS011;3631;42.152;24.756;2023-04-15T00:44:58;8.47;;;5.70;;
7179;SDS011;3631;42.152;24.756;2023-04-15T00:47:49;5.60;;;5.00;;
7179;SDS011;3631;42.152;24.756;2023-04-15T00:50:35;6.33;;;5.37;;
7179;SDS011;3631;42.152;24.756;2023-04-15T00:53:27;6.63;;;5.37;;
7179;SDS011;3631;42.152;24.756;2023-04-15T00:56:22;6.70;;;5.67;;
7179;SDS011;3631;42.152;24.756;2023-04-15T00:59:11;8.60;;;6.07;;
7179;SDS011;3631;42.152;24.756;2023-04-15T01:02:08;6.33;;;5.77;;
7179;SDS011;3631;42.152;24.756;2023-04-15T01:05:00;8.30;;;6.20;;
7179;SDS011;3631;42.152;24.756;2023-04-15T01:07:49;11.40;;;5.67;;
7179;SDS011;3631;42.152;24.756;2023-04-15T01:10:36;18.43;;;5.07;;
7179;SDS011;3631;42.152;24.756;2023-04-15T01:13:27;6.07;;;5.53;;
7179;SDS011;3631;42.152;24.756;2023-04-15T01:16:15;13.27;;;7.80;;
7179;SDS011;3631;42.152;24.756;2023-04-15T01:19:09;8.67;;;5.60;;
7179;SDS011;3631;42.152;24.756;2023-04-15T01:21:56;5.70;;;5.20;;
7179;SDS011;3631;42.152;24.756;2023-04-15T01:24:51;8.83;;;5.73;;
7179;SDS011;3631;42.152;24.756;2023-04-15T01:27:50;6.30;;;4.63;;
7179;SDS011;3631;42.152;24.756;2023-04-15T01:30:42;6.90;;;5.30;;
7179;SDS011;3631;42.152;24.756;2023-04-15T01:33:42;5.57;;;5.10;;
7179;SDS011;3631;42.152;24.756;2023-04-15T01:36:35;6.33;;;5.20;;
7179;SDS011;3631;42.152;24.756;2023-04-15T01:39:18;6.03;;;5.20;;
7179;SDS011;3631;42.152;24.756;2023-04-15T01:42:06;5.13;;;4.63;;
7179;SDS011;3631;42.152;24.756;2023-04-15T01:45:10;6.07;;;5.10;;
7179;SDS011;3631;42.152;24.756;2023-04-15T01:48:02;4.83;;;4.53;;
7179;SDS011;3631;42.152;24.756;2023-04-15T01:51:06;5.37;;;4.97;;
7179;SDS011;3631;42.152;24.756;2023-04-15T01:53:59;6.07;;;4.77;;
7179;SDS011;3631;42.152;24.756;2023-04-15T01:56:52;5.73;;;4.80;;
7179;SDS011;3631;42.152;24.756;2023-04-15T01:59:42;4.50;;;4.20;;
7179;SDS011;3631;42.152;24.756;2023-04-15T02:02:43;3.87;;;3.57;;
7179;SDS011;3631;42.152;24.756;2023-04-15T02:05:31;6.40;;;4.83;;
7179;SDS011;3631;42.152;24.756;2023-04-15T02:08:20;7.00;;;4.30;;
7179;SDS011;3631;42.152;24.756;2023-04-15T02:11:21;4.50;;;4.10;;
7179;SDS011;3631;42.152;24.756;2023-04-15T02:14:09;7.50;;;4.80;;
7179;SDS011;3631;42.152;24.756;2023-04-15T02:17:11;4.53;;;4.13;;
7179;SDS011;3631;42.152;24.756;2023-04-15T02:20:07;5.57;;;4.50;;
7179;SDS011;3631;42.152;24.756;2023-04-15T02:22:54;5.27;;;4.03;;
7179;SDS011;3631;42.152;24.756;2023-04-15T02:25:39;5.50;;;3.90;;
7179;SDS011;3631;42.152;24.756;2023-04-15T02:28:29;6.27;;;3.80;;
7179;SDS011;3631;42.152;24.756;2023-04-15T02:31:16;4.67;;;4.00;;
7179;SDS011;3631;42.152;24.756;2023-04-15T02:34:00;5.13;;;4.00;;
7179;SDS011;3631;42.152;24.756;2023-04-15T02:36:56;4.00;;;3.60;;
7179;SDS011;3631;42.152;24.756;2023-04-15T02:39:53;4.20;;;3.80;;
7179;SDS011;3631;42.152;24.756;2023-04-15T02:42:43;8.20;;;3.30;;
7179;SDS011;3631;42.152;24.756;2023-04-15T02:45:37;4.33;;;3.27;;
7179;SDS011;3631;42.152;24.756;2023-04-15T02:48:30;3.50;;;3.20;;
7179;SDS011;3631;42.152;24.756;2023-04-15T02:51:29;7.00;;;3.60;;
7179;SDS011;3631;42.152;24.756;2023-04-15T02:57:38;4.43;;;3.00;;
7179;SDS011;3631;42.152;24.756;2023-04-15T03:00:26;4.70;;;3.17;;
7179;SDS011;3631;42.152;24.756;2023-04-15T03:03:24;4.27;;;3.57;;
7179;SDS011;3631;42.152;24.756;2023-04-15T03:06:18;6.00;;;3.30;;
7179;SDS011;3631;42.152;24.756;2023-04-15T03:09:10;3.87;;;2.70;;
7179;SDS011;3631;42.152;24.756;2023-04-15T03:12:03;6.47;;;2.80;;
7179;SDS011;3631;42.152;24.756;2023-04-15T03:14:52;5.60;;;2.70;;
7179;SDS011;3631;42.152;24.756;2023-04-15T03:17:45;3.07;;;2.67;;
7179;SDS011;3631;42.152;24.756;2023-04-15T03:20:33;2.70;;;2.50;;
7179;SDS011;3631;42.152;24.756;2023-04-15T03:23:32;3.17;;;2.87;;
7179;SDS011;3631;42.152;24.756;2023-04-15T03:26:25;3.00;;;2.50;;
7179;SDS011;3631;42.152;24.756;2023-04-15T03:32:09;4.33;;;3.00;;
7179;SDS011;3631;42.152;24.756;2023-04-15T03:35:15;5.43;;;3.03;;
7179;SDS011;3631;42.152;24.756;2023-04-15T03:38:02;3.20;;;3.00;;
7179;SDS011;3631;42.152;24.756;2023-04-15T03:40:50;3.87;;;3.20;;
7179;SDS011;3631;42.152;24.756;2023-04-15T03:43:52;4.50;;;3.73;;
7179;SDS011;3631;42.152;24.756;2023-04-15T03:46:45;4.73;;;3.07;;
7179;SDS011;3631;42.152;24.756;2023-04-15T03:49:21;3.60;;;2.97;;
7179;SDS011;3631;42.152;24.756;2023-04-15T03:52:10;3.47;;;3.17;;
7179;SDS011;3631;42.152;24.756;2023-04-15T03:54:54;5.83;;;2.77;;
7179;SDS011;3631;42.152;24.756;2023-04-15T03:57:48;3.27;;;2.97;;
7179;SDS011;3631;42.152;24.756;2023-04-15T04:00:40;4.03;;;3.00;;
7179;SDS011;3631;42.152;24.756;2023-04-15T04:03:49;2.83;;;2.63;;
7179;SDS011;3631;42.152;24.756;2023-04-15T04:06:42;3.83;;;3.03;;
7179;SDS011;3631;42.152;24.756;2023-04-15T04:12:29;4.50;;;3.27;;
7179;SDS011;3631;42.152;24.756;2023-04-15T04:15:18;3.63;;;3.33;;
7179;SDS011;3631;42.152;24.756;2023-04-15T04:18:09;3.73;;;3.03;;
7179;SDS011;3631;42.152;24.756;2023-04-15T04:21:10;4.90;;;3.20;;
7179;SDS011;3631;42.152;24.756;2023-04-15T04:24:02;4.73;;;3.20;;
7179;SDS011;3631;42.152;24.756;2023-04-15T04:26:45;4.23;;;3.00;;
7179;SDS011;3631;42.152;24.756;2023-04-15T04:29:42;2.90;;;2.70;;
7179;SDS011;3631;42.152;24.756;2023-04-15T04:32:37;3.33;;;3.03;;
7179;SDS011;3631;42.152;24.756;2023-04-15T04:35:27;4.80;;;2.73;;
7179;SDS011;3631;42.152;24.756;2023-04-15T04:38:30;3.87;;;2.53;;
7179;SDS011;3631;42.152;24.756;2023-04-15T04:41:21;3.90;;;2.40;;
7179;SDS011;3631;42.152;24.756;2023-04-15T04:44:11;4.17;;;3.00;;
7179;SDS011;3631;42.152;24.756;2023-04-15T04:46:59;5.33;;;2.93;;
7179;SDS011;3631;42.152;24.756;2023-04-15T04:49:49;3.03;;;2.83;;
7179;SDS011;3631;42.152;24.756;2023-04-15T04:52:37;8.35;;;3.63;;
7179;SDS011;3631;42.152;24.756;2023-04-15T04:55:13;3.63;;;3.25;;
7179;SDS011;3631;42.152;24.756;2023-04-15T04:57:56;2.83;;;2.63;;
7179;SDS011;3631;42.152;24.756;2023-04-15T05:00:41;3.13;;;2.90;;
7179;SDS011;3631;42.152;24.756;2023-04-15T05:06:22;5.55;;;3.60;;
7179;SDS011;3631;42.152;24.756;2023-04-15T05:09:17;5.20;;;4.72;;
7179;SDS011;3631;42.152;24.756;2023-04-15T05:12:13;5.45;;;4.72;;
7179;SDS011;3631;42.152;24.756;2023-04-15T05:15:01;6.43;;;4.70;;
7179;SDS011;3631;42.152;24.756;2023-04-15T05:17:49;3.90;;;3.45;;
7179;SDS011;3631;42.152;24.756;2023-04-15T05:20:30;4.00;;;2.80;;
7179;SDS011;3631;42.152;24.756;2023-04-15T05:23:19;10.13;;;3.08;;
7179;SDS011;3631;42.152;24.756;2023-04-15T05:26:15;3.80;;;3.50;;
7179;SDS011;3631;42.152;24.756;2023-04-15T05:32:31;3.53;;;3.33;;
7179;SDS011;3631;42.152;24.756;2023-04-15T05:35:26;14.57;;;3.58;;
7179;SDS011;3631;42.152;24.756;2023-04-15T05:38:15;37.58;;;4.88;;
7179;SDS011;3631;42.152;24.756;2023-04-15T05:41:11;18.65;;;3.70;;
7179;SDS011;3631;42.152;24.756;2023-04-15T05:44:07;8.88;;;3.33;;
7179;SDS011;3631;42.152;24.756;2023-04-15T05:50:08;5.45;;;2.90;;
7179;SDS011;3631;42.152;24.756;2023-04-15T05:52:58;4.75;;;2.80;;
7179;SDS011;3631;42.152;24.756;2023-04-15T05:56:00;2.33;;;2.13;;
7179;SDS011;3631;42.152;24.756;2023-04-15T05:58:38;9.30;;;3.10;;
7179;SDS011;3631;42.152;24.756;2023-04-15T06:01:11;4.90;;;2.40;;
7179;SDS011;3631;42.152;24.756;2023-04-15T06:04:07;9.90;;;3.17;;
7179;SDS011;3631;42.152;24.756;2023-04-15T06:06:49;8.55;;;3.17;;
7179;SDS011;3631;42.152;24.756;2023-04-15T06:09:37;70.57;;;7.15;;
7179;SDS011;3631;42.152;24.756;2023-04-15T06:12:30;11.63;;;3.40;;
7179;SDS011;3631;42.152;24.756;2023-04-15T06:15:15;11.40;;;2.90;;
7179;SDS011;3631;42.152;24.756;2023-04-15T06:17:55;3.20;;;3.00;;
7179;SDS011;3631;42.152;24.756;2023-04-15T06:20:44;3.97;;;3.17;;
7179;SDS011;3631;42.152;24.756;2023-04-15T06:23:32;3.03;;;2.65;;
7179;SDS011;3631;42.152;24.756;2023-04-15T06:26:20;3.67;;;2.50;;
7179;SDS011;3631;42.152;24.756;2023-04-15T06:29:03;4.88;;;2.28;;
7179;SDS011;3631;42.152;24.756;2023-04-15T06:31:34;3.97;;;3.03;;
7179;SDS011;3631;42.152;24.756;2023-04-15T06:34:26;3.30;;;3.00;;
7179;SDS011;3631;42.152;24.756;2023-04-15T06:37:21;2.78;;;2.42;;
7179;SDS011;3631;42.152;24.756;2023-04-15T06:40:00;3.15;;;2.50;;
7179;SDS011;3631;42.152;24.756;2023-04-15T06:42:36;2.38;;;2.17;;
7179;SDS011;3631;42.152;24.756;2023-04-15T06:45:20;3.67;;;2.40;;
7179;SDS011;3631;42.152;24.756;2023-04-15T06:48:18;3.47;;;2.53;;
7179;SDS011;3631;42.152;24.756;2023-04-15T06:51:11;3.17;;;2.05;;
7179;SDS011;3631;42.152;24.756;2023-04-15T06:54:06;6.97;;;3.95;;
7179;SDS011;3631;42.152;24.756;2023-04-15T06:56:49;6.70;;;5.65;;
7179;SDS011;3631;42.152;24.756;2023-04-15T06:59:40;2.85;;;2.60;;
7179;SDS011;3631;42.152;24.756;2023-04-15T07:02:28;5.65;;;3.42;;
7179;SDS011;3631;42.152;24.756;2023-04-15T07:05:27;5.18;;;3.33;;
7179;SDS011;3631;42.152;24.756;2023-04-15T07:08:22;3.20;;;2.70;;
7179;SDS011;3631;42.152;24.756;2023-04-15T07:14:14;5.95;;;3.80;;
7179;SDS011;3631;42.152;24.756;2023-04-15T07:16:41;7.40;;;2.85;;
7179;SDS011;3631;42.152;24.756;2023-04-15T07:19:09;3.65;;;3.35;;
7179;SDS011;3631;42.152;24.756;2023-04-15T07:21:39;7.15;;;4.57;;
7179;SDS011;3631;42.152;24.756;2023-04-15T07:24:18;4.25;;;2.80;;
7179;SDS011;3631;42.152;24.756;2023-04-15T07:27:13;4.28;;;3.38;;
7179;SDS011;3631;42.152;24.756;2023-04-15T07:30:03;7.50;;;5.07;;
7179;SDS011;3631;42.152;24.756;2023-04-15T07:32:36;5.93;;;4.28;;
7179;SDS011;3631;42.152;24.756;2023-04-15T07:35:18;4.18;;;3.88;;
7179;SDS011;3631;42.152;24.756;2023-04-15T07:38:13;4.55;;;3.72;;
7179;SDS011;3631;42.152;24.756;2023-04-15T07:40:44;4.90;;;4.30;;
7179;SDS011;3631;42.152;24.756;2023-04-15T07:43:33;5.85;;;5.00;;
7179;SDS011;3631;42.152;24.756;2023-04-15T07:46:18;4.10;;;3.80;;
7179;SDS011;3631;42.152;24.756;2023-04-15T07:49:01;4.07;;;3.67;;
7179;SDS011;3631;42.152;24.756;2023-04-15T07:51:42;5.68;;;4.50;;
7179;SDS011;3631;42.152;24.756;2023-04-15T07:54:35;6.07;;;3.83;;
7179;SDS011;3631;42.152;24.756;2023-04-15T07:57:26;9.18;;;3.60;;
7179;SDS011;3631;42.152;24.756;2023-04-15T08:00:17;8.48;;;4.80;;
7179;SDS011;3631;42.152;24.756;2023-04-15T08:03:01;5.93;;;4.93;;
7179;SDS011;3631;42.152;24.756;2023-04-15T08:05:50;9.13;;;5.80;;
7179;SDS011;3631;42.152;24.756;2023-04-15T08:08:35;5.43;;;4.95;;
7179;SDS011;3631;42.152;24.756;2023-04-15T08:11:27;4.68;;;4.28;;
7179;SDS011;3631;42.152;24.756;2023-04-15T08:14:05;8.00;;;4.57;;
7179;SDS011;3631;42.152;24.756;2023-04-15T08:16:48;5.38;;;4.32;;
7179;SDS011;3631;42.152;24.756;2023-04-15T08:19:30;6.38;;;3.60;;
7179;SDS011;3631;42.152;24.756;2023-04-15T08:22:13;8.98;;;3.50;;
7179;SDS011;3631;42.152;24.756;2023-04-15T08:25:02;5.60;;;3.65;;
7179;SDS011;3631;42.152;24.756;2023-04-15T08:27:54;4.72;;;3.30;;
7179;SDS011;3631;42.152;24.756;2023-04-15T08:30:47;5.70;;;3.42;;
7179;SDS011;3631;42.152;24.756;2023-04-15T08:33:32;5.18;;;3.90;;
7179;SDS011;3631;42.152;24.756;2023-04-15T08:36:16;5.07;;;4.68;;
7179;SDS011;3631;42.152;24.756;2023-04-15T08:39:14;7.05;;;4.43;;
7179;SDS011;3631;42.152;24.756;2023-04-15T08:42:04;5.57;;;3.78;;
7179;SDS011;3631;42.152;24.756;2023-04-15T08:48:01;8.85;;;4.30;;
7179;SDS011;3631;42.152;24.756;2023-04-15T08:51:07;5.70;;;4.25;;
7179;SDS011;3631;42.152;24.756;2023-04-15T08:53:49;4.80;;;4.40;;
7179;SDS011;3631;42.152;24.756;2023-04-15T08:56:38;5.22;;;4.72;;
7179;SDS011;3631;42.152;24.756;2023-04-15T08:59:32;15.23;;;8.18;;
7179;SDS011;3631;42.152;24.756;2023-04-15T09:02:25;12.13;;;6.43;;
7179;SDS011;3631;42.152;24.756;2023-04-15T09:05:09;4.95;;;4.45;;
7179;SDS011;3631;42.152;24.756;2023-04-15T09:08:06;5.57;;;4.22;;
7179;SDS011;3631;42.152;24.756;2023-04-15T09:10:55;4.97;;;4.35;;
7179;SDS011;3631;42.152;24.756;2023-04-15T09:13:47;5.28;;;3.83;;
7179;SDS011;3631;42.152;24.756;2023-04-15T09:16:31;5.38;;;3.50;;
7179;SDS011;3631;42.152;24.756;2023-04-15T09:19:32;7.05;;;3.42;;
7179;SDS011;3631;42.152;24.756;2023-04-15T09:22:31;5.90;;;3.65;;
7179;SDS011;3631;42.152;24.756;2023-04-15T09:25:31;3.90;;;3.60;;
7179;SDS011;3631;42.152;24.756;2023-04-15T09:28:07;5.05;;;3.78;;
7179;SDS011;3631;42.152;24.756;2023-04-15T09:30:57;3.92;;;3.50;;
7179;SDS011;3631;42.152;24.756;2023-04-15T09:33:55;7.28;;;3.83;;
7179;SDS011;3631;42.152;24.756;2023-04-15T09:36:54;3.95;;;3.60;;
7179;SDS011;3631;42.152;24.756;2023-04-15T09:39:50;4.38;;;3.97;;
7179;SDS011;3631;42.152;24.756;2023-04-15T09:42:38;5.03;;;3.53;;
7179;SDS011;3631;42.152;24.756;2023-04-15T09:45:52;4.07;;;3.28;;
7179;SDS011;3631;42.152;24.756;2023-04-15T09:48:43;5.55;;;4.10;;
7179;SDS011;3631;42.152;24.756;2023-04-15T09:51:57;6.93;;;2.92;;
7179;SDS011;3631;42.152;24.756;2023-04-15T09:54:52;5.60;;;3.38;;
7179;SDS011;3631;42.152;24.756;2023-04-15T09:57:41;4.15;;;2.80;;
7179;SDS011;3631;42.152;24.756;2023-04-15T10:00:15;9.00;;;3.10;;
7179;SDS011;3631;42.152;24.756;2023-04-15T10:03:11;3.55;;;3.25;;
7179;SDS011;3631;42.152;24.756;2023-04-15T10:06:02;4.32;;;2.63;;
7179;SDS011;3631;42.152;24.756;2023-04-15T10:08:47;4.05;;;2.33;;
7179;SDS011;3631;42.152;24.756;2023-04-15T10:11:28;5.45;;;2.60;;
7179;SDS011;3631;42.152;24.756;2023-04-15T10:14:23;3.80;;;2.47;;
7179;SDS011;3631;42.152;24.756;2023-04-15T10:17:10;3.47;;;2.60;;
7179;SDS011;3631;42.152;24.756;2023-04-15T10:20:04;5.40;;;2.55;;
7179;SDS011;3631;42.152;24.756;2023-04-15T10:22:47;4.35;;;2.70;;
7179;SDS011;3631;42.152;24.756;2023-04-15T10:25:20;4.55;;;3.70;;
7179;SDS011;3631;42.152;24.756;2023-04-15T10:27:55;7.32;;;5.03;;
7179;SDS011;3631;42.152;24.756;2023-04-15T10:30:42;5.18;;;4.53;;
7179;SDS011;3631;42.152;24.756;2023-04-15T10:33:27;8.05;;;4.70;;
7179;SDS011;3631;42.152;24.756;2023-04-15T10:42:39;5.53;;;4.93;;
7179;SDS011;3631;42.152;24.756;2023-04-15T10:45:21;7.20;;;5.13;;
7179;SDS011;3631;42.152;24.756;2023-04-15T10:48:16;5.72;;;5.10;;
7179;SDS011;3631;42.152;24.756;2023-04-15T10:51:02;7.35;;;5.78;;
7179;SDS011;3631;42.152;24.756;2023-04-15T10:53:44;7.00;;;6.10;;
7179;SDS011;3631;42.152;24.756;2023-04-15T10:56:43;6.03;;;5.63;;
7179;SDS011;3631;42.152;24.756;2023-04-15T10:59:30;5.82;;;5.22;;
7179;SDS011;3631;42.152;24.756;2023-04-15T11:02:40;8.60;;;5.40;;
7179;SDS011;3631;42.152;24.756;2023-04-15T11:14:59;6.43;;;5.18;;
7179;SDS011;3631;42.152;24.756;2023-04-15T11:17:58;8.18;;;5.18;;
7179;SDS011;3631;42.152;24.756;2023-04-15T11:20:45;7.05;;;5.70;;
7179;SDS011;3631;42.152;24.756;2023-04-15T11:23:33;5.13;;;4.72;;
7179;SDS011;3631;42.152;24.756;2023-04-15T11:26:24;5.22;;;4.72;;
7179;SDS011;3631;42.152;24.756;2023-04-15T11:29:14;10.35;;;5.03;;
7179;SDS011;3631;42.152;24.756;2023-04-15T11:32:21;5.15;;;4.75;;
7179;SDS011;3631;42.152;24.756;2023-04-15T11:35:11;5.22;;;4.63;;
7179;SDS011;3631;42.152;24.756;2023-04-15T11:37:58;4.82;;;4.43;;
7179;SDS011;3631;42.152;24.756;2023-04-15T11:40:49;5.22;;;4.60;;
7179;SDS011;3631;42.152;24.756;2023-04-15T11:43:31;4.70;;;4.32;;
7179;SDS011;3631;42.152;24.756;2023-04-15T11:46:07;4.70;;;4.30;;
7179;SDS011;3631;42.152;24.756;2023-04-15T11:49:13;4.68;;;4.15;;
7179;SDS011;3631;42.152;24.756;2023-04-15T11:52:09;4.53;;;4.20;;
7179;SDS011;3631;42.152;24.756;2023-04-15T11:54:51;5.65;;;4.35;;
7179;SDS011;3631;42.152;24.756;2023-04-15T11:57:46;4.90;;;4.43;;
7179;SDS011;3631;42.152;24.756;2023-04-15T12:00:30;5.18;;;4.00;;
7179;SDS011;3631;42.152;24.756;2023-04-15T12:03:22;5.97;;;4.05;;
7179;SDS011;3631;42.152;24.756;2023-04-15T12:06:18;6.75;;;4.35;;
7179;SDS011;3631;42.152;24.756;2023-04-15T12:09:15;4.88;;;3.95;;
7179;SDS011;3631;42.152;24.756;2023-04-15T12:12:06;9.55;;;3.90;;
7179;SDS011;3631;42.152;24.756;2023-04-15T12:14:54;4.32;;;3.22;;
7179;SDS011;3631;42.152;24.756;2023-04-15T12:17:31;7.78;;;3.50;;
7179;SDS011;3631;42.152;24.756;2023-04-15T12:20:21;3.83;;;2.67;;
7179;SDS011;3631;42.152;24.756;2023-04-15T12:23:12;2.67;;;2.47;;
7179;SDS011;3631;42.152;24.756;2023-04-15T12:26:04;5.20;;;3.05;;
7179;SDS011;3631;42.152;24.756;2023-04-15T12:28:49;5.32;;;2.72;;
7179;SDS011;3631;42.152;24.756;2023-04-15T12:32:04;3.97;;;2.58;;
7179;SDS011;3631;42.152;24.756;2023-04-15T12:34:50;2.63;;;2.42;;
7179;SDS011;3631;42.152;24.756;2023-04-15T12:37:44;2.47;;;2.28;;
7179;SDS011;3631;42.152;24.756;2023-04-15T12:40:44;3.13;;;1.90;;
7179;SDS011;3631;42.152;24.756;2023-04-15T12:43:32;4.38;;;2.17;;
7179;SDS011;3631;42.152;24.756;2023-04-15T12:46:17;4.00;;;2.30;;
7179;SDS011;3631;42.152;24.756;2023-04-15T12:48:58;3.33;;;2.70;;
7179;SDS011;3631;42.152;24.756;2023-04-15T12:51:51;2.38;;;1.85;;
7179;SDS011;3631;42.152;24.756;2023-04-15T12:54:36;2.03;;;1.90;;
7179;SDS011;3631;42.152;24.756;2023-04-15T12:57:26;3.70;;;2.10;;
7179;SDS011;3631;42.152;24.756;2023-04-15T13:00:17;2.75;;;2.10;;
7179;SDS011;3631;42.152;24.756;2023-04-15T13:03:03;4.40;;;2.42;;
7179;SDS011;3631;42.152;24.756;2023-04-15T13:05:42;2.33;;;2.13;;
7179;SDS011;3631;42.152;24.756;2023-04-15T13:08:21;4.78;;;2.25;;
7179;SDS011;3631;42.152;24.756;2023-04-15T13:11:12;2.80;;;2.10;;
7179;SDS011;3631;42.152;24.756;2023-04-15T13:14:06;2.40;;;2.00;;
7179;SDS011;3631;42.152;24.756;2023-04-15T13:16:44;3.20;;;2.35;;
7179;SDS011;3631;42.152;24.756;2023-04-15T13:19:20;2.55;;;2.22;;
7179;SDS011;3631;42.152;24.756;2023-04-15T13:22:00;3.50;;;1.95;;
7179;SDS011;3631;42.152;24.756;2023-04-15T13:24:50;4.78;;;1.95;;
7179;SDS011;3631;42.152;24.756;2023-04-15T13:27:26;4.82;;;2.40;;
7179;SDS011;3631;42.152;24.756;2023-04-15T13:30:10;4.13;;;2.40;;
7179;SDS011;3631;42.152;24.756;2023-04-15T13:33:02;3.50;;;2.25;;
7179;SDS011;3631;42.152;24.756;2023-04-15T13:36:01;3.15;;;2.42;;
7179;SDS011;3631;42.152;24.756;2023-04-15T13:38:53;4.85;;;2.05;;
7179;SDS011;3631;42.152;24.756;2023-04-15T13:41:45;4.55;;;2.28;;
7179;SDS011;3631;42.152;24.756;2023-04-15T13:44:35;3.85;;;1.98;;
7179;SDS011;3631;42.152;24.756;2023-04-15T13:47:33;2.28;;;2.00;;
7179;SDS011;3631;42.152;24.756;2023-04-15T13:50:28;2.28;;;2.08;;
7179;SDS011;3631;42.152;24.756;2023-04-15T13:53:15;4.47;;;2.25;;
7179;SDS011;3631;42.152;24.756;2023-04-15T13:56:03;3.25;;;2.53;;
7179;SDS011;3631;42.152;24.756;2023-04-15T13:58:54;3.80;;;2.20;;
7179;SDS011;3631;42.152;24.756;2023-04-15T14:01:38;3.97;;;2.85;;
7179;SDS011;3631;42.152;24.756;2023-04-15T14:04:29;4.80;;;3.05;;
7179;SDS011;3631;42.152;24.756;2023-04-15T14:07:17;4.68;;;2.60;;
7179;SDS011;3631;42.152;24.756;2023-04-15T14:10:00;10.82;;;3.60;;
7179;SDS011;3631;42.152;24.756;2023-04-15T14:12:52;4.63;;;2.22;;
7179;SDS011;3631;42.152;24.756;2023-04-15T14:15:43;3.72;;;1.70;;
7179;SDS011;3631;42.152;24.756;2023-04-15T14:18:32;3.88;;;2.00;;
7179;SDS011;3631;42.152;24.756;2023-04-15T14:21:39;5.40;;;2.47;;
7179;SDS011;3631;42.152;24.756;2023-04-15T14:24:33;3.42;;;2.40;;
7179;SDS011;3631;42.152;24.756;2023-04-15T14:27:25;4.68;;;2.47;;
7179;SDS011;3631;42.152;24.756;2023-04-15T14:30:15;4.93;;;2.28;;
7179;SDS011;3631;42.152;24.756;2023-04-15T14:33:09;3.95;;;2.30;;
7179;SDS011;3631;42.152;24.756;2023-04-15T14:35:58;2.85;;;2.22;;
7179;SDS011;3631;42.152;24.756;2023-04-15T14:38:54;3.58;;;2.50;;
7179;SDS011;3631;42.152;24.756;2023-04-15T14:41:45;6.32;;;4.57;;
7179;SDS011;3631;42.152;24.756;2023-04-15T14:44:21;8.30;;;5.30;;
7179;SDS011;3631;42.152;24.756;2023-04-15T14:47:02;7.70;;;5.10;;
7179;SDS011;3631;42.152;24.756;2023-04-15T14:49:39;5.35;;;2.67;;
7179;SDS011;3631;42.152;24.756;2023-04-15T14:52:31;4.82;;;3.30;;
7179;SDS011;3631;42.152;24.756;2023-04-15T14:55:16;6.03;;;3.50;;
7179;SDS011;3631;42.152;24.756;2023-04-15T14:57:57;3.75;;;2.35;;
7179;SDS011;3631;42.152;24.756;2023-04-15T15:00:58;5.00;;;2.40;;
7179;SDS011;3631;42.152;24.756;2023-04-15T15:03:43;3.60;;;2.35;;
7179;SDS011;3631;42.152;24.756;2023-04-15T15:06:19;4.65;;;3.40;;
7179;SDS011;3631;42.152;24.756;2023-04-15T15:08:49;3.42;;;2.22;;
7179;SDS011;3631;42.152;24.756;2023-04-15T15:11:34;4.22;;;2.60;;
7179;SDS011;3631;42.152;24.756;2023-04-15T15:14:12;5.97;;;2.80;;
7179;SDS011;3631;42.152;24.756;2023-04-15T15:16:55;7.85;;;2.80;;
7179;SDS011;3631;42.152;24.756;2023-04-15T15:19:36;4.97;;;2.60;;
7179;SDS011;3631;42.152;24.756;2023-04-15T15:22:26;4.10;;;2.63;;
7179;SDS011;3631;42.152;24.756;2023-04-15T15:25:08;7.38;;;2.47;;
7179;SDS011;3631;42.152;24.756;2023-04-15T15:27:58;6.07;;;2.67;;
7179;SDS011;3631;42.152;24.756;2023-04-15T15:30:40;4.80;;;2.50;;
7179;SDS011;3631;42.152;24.756;2023-04-15T15:33:36;4.97;;;3.22;;
7179;SDS011;3631;42.152;24.756;2023-04-15T15:36:15;7.45;;;3.78;;
7179;SDS011;3631;42.152;24.756;2023-04-15T15:39:05;3.30;;;3.10;;
7179;SDS011;3631;42.152;24.756;2023-04-15T15:41:34;5.47;;;3.00;;
7179;SDS011;3631;42.152;24.756;2023-04-15T15:44:12;7.13;;;3.40;;
7179;SDS011;3631;42.152;24.756;2023-04-15T15:47:05;6.15;;;3.05;;
7179;SDS011;3631;42.152;24.756;2023-04-15T15:49:56;3.42;;;3.13;;
7179;SDS011;3631;42.152;24.756;2023-04-15T15:52:47;5.28;;;3.22;;
7179;SDS011;3631;42.152;24.756;2023-04-15T15:55:47;4.18;;;2.85;;
7179;SDS011;3631;42.152;24.756;2023-04-15T15:58:30;7.55;;;3.20;;
7179;SDS011;3631;42.152;24.756;2023-04-15T16:01:12;5.80;;;3.55;;
7179;SDS011;3631;42.152;24.756;2023-04-15T16:03:57;3.35;;;3.10;;
7179;SDS011;3631;42.152;24.756;2023-04-15T16:06:40;5.95;;;3.63;;
7179;SDS011;3631;42.152;24.756;2023-04-15T16:09:26;6.05;;;4.22;;
7179;SDS011;3631;42.152;24.756;2023-04-15T16:12:17;5.05;;;3.72;;
7179;SDS011;3631;42.152;24.756;2023-04-15T16:14:56;7.22;;;3.95;;
7179;SDS011;3631;42.152;24.756;2023-04-15T16:17:40;7.47;;;3.70;;
7179;SDS011;3631;42.152;24.756;2023-04-15T16:20:27;4.72;;;3.65;;
7179;SDS011;3631;42.152;24.756;2023-04-15T16:23:03;5.80;;;3.70;;
7179;SDS011;3631;42.152;24.756;2023-04-15T16:25:53;4.45;;;4.05;;
7179;SDS011;3631;42.152;24.756;2023-04-15T16:28:42;5.03;;;3.90;;
7179;SDS011;3631;42.152;24.756;2023-04-15T16:31:29;5.53;;;3.88;;
7179;SDS011;3631;42.152;24.756;2023-04-15T16:34:05;6.38;;;4.07;;
7179;SDS011;3631;42.152;24.756;2023-04-15T16:36:36;10.75;;;5.10;;
7179;SDS011;3631;42.152;24.756;2023-04-15T16:39:05;6.60;;;4.00;;
7179;SDS011;3631;42.152;24.756;2023-04-15T16:41:46;6.68;;;4.35;;
7179;SDS011;3631;42.152;24.756;2023-04-15T16:44:34;6.22;;;3.83;;
7179;SDS011;3631;42.152;24.756;2023-04-15T16:47:24;7.20;;;4.30;;
7179;SDS011;3631;42.152;24.756;2023-04-15T16:50:37;5.07;;;4.40;;
7179;SDS011;3631;42.152;24.756;2023-04-15T16:53:26;9.20;;;4.70;;
7179;SDS011;3631;42.152;24.756;2023-04-15T16:56:15;6.07;;;4.63;;
7179;SDS011;3631;42.152;24.756;2023-04-15T16:58:58;6.80;;;5.05;;
7179;SDS011;3631;42.152;24.756;2023-04-15T17:01:51;6.43;;;5.32;;
7179;SDS011;3631;42.152;24.756;2023-04-15T17:04:29;6.72;;;4.55;;
7179;SDS011;3631;42.152;24.756;2023-04-15T17:07:24;7.57;;;4.90;;
7179;SDS011;3631;42.152;24.756;2023-04-15T17:10:03;7.72;;;4.85;;
7179;SDS011;3631;42.152;24.756;2023-04-15T17:12:38;7.38;;;4.22;;
7179;SDS011;3631;42.152;24.756;2023-04-15T17:15:27;7.85;;;4.80;;
7179;SDS011;3631;42.152;24.756;2023-04-15T17:18:06;6.82;;;4.45;;
7179;SDS011;3631;42.152;24.756;2023-04-15T17:20:43;11.32;;;5.05;;
7179;SDS011;3631;42.152;24.756;2023-04-15T17:23:30;7.85;;;4.70;;
7179;SDS011;3631;42.152;24.756;2023-04-15T17:26:06;5.63;;;4.47;;
7179;SDS011;3631;42.152;24.756;2023-04-15T17:28:49;8.02;;;5.72;;
7179;SDS011;3631;42.152;24.756;2023-04-15T17:31:38;12.55;;;6.47;;
7179;SDS011;3631;42.152;24.756;2023-04-15T17:34:28;9.45;;;6.35;;
7179;SDS011;3631;42.152;24.756;2023-04-15T17:37:09;8.80;;;5.45;;
7179;SDS011;3631;42.152;24.756;2023-04-15T17:40:00;7.75;;;5.55;;
7179;SDS011;3631;42.152;24.756;2023-04-15T17:42:33;12.15;;;5.57;;
7179;SDS011;3631;42.152;24.756;2023-04-15T17:45:02;11.38;;;6.70;;
7179;SDS011;3631;42.152;24.756;2023-04-15T17:47:34;14.15;;;7.32;;
7179;SDS011;3631;42.152;24.756;2023-04-15T17:50:27;8.55;;;5.57;;
7179;SDS011;3631;42.152;24.756;2023-04-15T17:53:09;8.98;;;5.40;;